You are listening to:
KSDF Ground/Tower #1 - Louisville, Kentucky, United States

KSDF 212356Z 27006KT 10SM FEW050 BKN250 31/22 A2994 RMK AO2 SLP132 T03060217 10344 20306 56013

If stream does not start automatically press the play button